Quick Links (Output Below):   Max & Min Temps   /   Climate Reports   /   Zone Forecasts
River Forecasts   /   Forestry Forecasts   /   Aviation Forecasts   /   Radars   /   Features

Terminal Aerodrome Forecast (Texarkana)

Pick a Site:
Arkadelphia | El Dorado | Fayetteville | Fort Smith | Harrison | Highfill | Hot Springs | Jonesboro
Little Rock | Monticello | Mountain Home | Pine Bluff | Texarkana
 Forecast 

KTXK 010537Z 0106/0206 00000KT P6SM FEW060
      TEMPO 0110/0114 5SM BR BKN015
     FM011400 16006KT P6SM SCT015
     FM011600 18008KT P6SM BKN030
     FM020000 14005KT P6SM FEW030=


 Latest METARs (Observations) 
How to Decode METARs
06Z KTXK 010553Z AUTO 12004KT 10SM FEW043 23/19 A2983 RMK AO2 SLP095
         60000 T02330189 10272 20228 403060189 55001
         
05Z KTXK 010453Z AUTO 12004KT 10SM FEW047 SCT055 23/19 A2983 RMK AO2
         SLP095 T02330189
         
04Z KTXK 010353Z AUTO 00000KT 10SM FEW055 23/19 A2983 RMK AO2 SLP097
         T02330189
         
03Z KTXK 010253Z AUTO 00000KT 10SM FEW120 24/19 A2983 RMK AO2 SLP098
         60000 T02390189 50007
         
02Z KTXK 010153Z 00000KT 10SM FEW055 24/19 A2983 RMK AO2 RAB03E12
         SLP098 P0000 T02440194
         
01Z KTXK 010053Z 13003KT 10SM FEW065 BKN090 26/19 A2982 RMK AO2 SLP093
         T02560194
         
***** Today's Observations (Above) *****


23Z KTXK 302253Z 07005KT 10SM CLR 29/19 A2981 RMK AO2 SLP090
         T02890189
         
22Z KTXK 302153Z 07007KT 10SM CLR 31/19 A2982 RMK AO2 SLP091
         T03060189
         
21Z KTXK 302053Z 08005KT 10SM BKN060 BKN075 OVC100 29/18 A2983 RMK AO2
         SLP096 T02940183 56024
         
20Z KTXK 301953Z VRB04KT 10SM FEW050 FEW100 30/18 A2985 RMK AO2 SLP102
         T03000183
         
***** Yesterday's Observations (Above) *****


Back to Main Page
http://www.srh.noaa.gov/lzk/qfcst.php

USA.gov is the U.S. government's official web portal to all federal, state and local government web resources and services.